Time;durP1;ratioP1;P1;durP2;ratioP2;P2;SDS_P1;SDS_P2;PMS_P1;PMS_P2;Temp;Humidity;BMP_temperature;BMP_pressure;BME280_temperature;BME280_humidity;BME280_pressure;Samples;Min_cycle;Max_cycle;Signal;HPM_P1;HPM_P2
2020/12/09 00:00:42;;;;;;;27.52;14.43;;;;;;;;;;5048977;28;20025;-67
2020/12/09 00:03:08;;;;;;;23.85;13.48;;;;;;;;;;5050028;28;20017;-66
2020/12/09 00:05:33;;;;;;;33.35;15.20;;;;;;;;;;5050030;28;20099;-66
2020/12/09 00:07:58;;;;;;;24.42;13.82;;;;;;;;;;5049272;28;20021;-66
2020/12/09 00:10:23;;;;;;;28.13;13.47;;;;;;;;;;5048882;28;20052;-66
2020/12/09 00:12:49;;;;;;;30.17;14.73;;;;;;;;;;5045328;28;20663;-66
2020/12/09 00:15:15;;;;;;;20.92;12.93;;;;;;;;;;5049334;28;20024;-67
2020/12/09 00:17:40;;;;;;;25.52;13.50;;;;;;;;;;5046020;28;20024;-66
2020/12/09 00:20:05;;;;;;;26.05;14.57;;;;;;;;;;5045199;28;20031;-67
2020/12/09 00:22:31;;;;;;;26.38;13.35;;;;;;;;;;5049956;28;20461;-66
2020/12/09 00:24:56;;;;;;;29.13;14.38;;;;;;;;;;5048728;28;20086;-66
2020/12/09 00:27:21;;;;;;;28.25;13.48;;;;;;;;;;5048746;28;20029;-66
2020/12/09 00:29:46;;;;;;;26.15;13.55;;;;;;;;;;5047942;28;20392;-66
2020/12/09 00:32:12;;;;;;;25.85;13.40;;;;;;;;;;5048914;28;20009;-67
2020/12/09 00:34:37;;;;;;;25.35;13.63;;;;;;;;;;5049032;28;20124;-66
2020/12/09 00:37:02;;;;;;;24.90;13.95;;;;;;;;;;5048000;28;20033;-68
2020/12/09 00:39:27;;;;;;;23.55;13.80;;;;;;;;;;5046359;28;20021;-66
2020/12/09 00:41:52;;;;;;;26.60;14.13;;;;;;;;;;5047545;28;20421;-66
2020/12/09 00:44:17;;;;;;;25.52;15.07;;;;;;;;;;5048281;28;20027;-66
2020/12/09 00:46:43;;;;;;;26.08;14.35;;;;;;;;;;5049677;28;20025;-66
2020/12/09 00:49:08;;;;;;;26.17;14.27;;;;;;;;;;5048232;28;20021;-66
2020/12/09 00:51:33;;;;;;;27.63;14.05;;;;;;;;;;5049089;28;20123;-66
2020/12/09 00:53:58;;;;;;;24.85;14.50;;;;;;;;;;5047805;28;20036;-66
2020/12/09 00:56:23;;;;;;;27.00;13.77;;;;;;;;;;5045282;28;20099;-66
2020/12/09 00:58:49;;;;;;;27.02;13.63;;;;;;;;;;5048123;28;20029;-66
2020/12/09 01:01:14;;;;;;;26.77;14.50;;;;;;;;;;5048578;28;20057;-66
2020/12/09 01:03:39;;;;;;;24.35;13.82;;;;;;;;;;5044564;28;20109;-66
2020/12/09 01:06:06;;;;;;;29.08;14.70;;;;;;;;;;5049011;28;20028;-67
2020/12/09 01:08:31;;;;;;;26.13;13.50;;;;;;;;;;5042732;28;20021;-66
2020/12/09 01:10:57;;;;;;;26.30;14.60;;;;;;;;;;5049010;28;20151;-66
2020/12/09 01:13:22;;;;;;;25.38;13.10;;;;;;;;;;5046103;28;20025;-66
2020/12/09 01:15:47;;;;;;;26.50;14.85;;;;;;;;;;5052984;28;20025;-67
2020/12/09 01:18:12;;;;;;;34.03;17.17;;;;;;;;;;5049103;28;20017;-66
2020/12/09 01:20:38;;;;;;;37.00;19.30;;;;;;;;;;5041053;28;20496;-66
2020/12/09 01:23:03;;;;;;;34.22;18.55;;;;;;;;;;5045023;28;20032;-66
2020/12/09 01:25:28;;;;;;;37.55;18.98;;;;;;;;;;5042049;28;20029;-66
2020/12/09 01:27:55;;;;;;;44.50;20.83;;;;;;;;;;5047967;28;20781;-66
2020/12/09 01:30:20;;;;;;;40.90;19.45;;;;;;;;;;5048249;28;20021;-67
2020/12/09 01:32:46;;;;;;;38.75;21.20;;;;;;;;;;5048237;28;20027;-67
2020/12/09 01:35:11;;;;;;;36.00;19.42;;;;;;;;;;5047880;28;20036;-66
2020/12/09 01:37:36;;;;;;;42.28;21.17;;;;;;;;;;5048718;28;20029;-67
2020/12/09 01:40:01;;;;;;;39.53;19.80;;;;;;;;;;5048360;28;20439;-66
2020/12/09 01:42:26;;;;;;;37.90;20.20;;;;;;;;;;5048890;28;20032;-67
2020/12/09 01:44:52;;;;;;;44.20;20.97;;;;;;;;;;5048229;28;20020;-67
2020/12/09 01:47:17;;;;;;;48.85;24.92;;;;;;;;;;5047887;28;20279;-67
2020/12/09 01:49:42;;;;;;;52.30;25.00;;;;;;;;;;5047926;28;20017;-67
2020/12/09 01:52:08;;;;;;;46.60;23.83;;;;;;;;;;5046482;28;20469;-67
2020/12/09 01:54:33;;;;;;;46.20;22.75;;;;;;;;;;5052156;28;20009;-67
2020/12/09 01:57:05;;;;;;;48.28;23.40;;;;;;;;;;5052450;28;20024;-68
2020/12/09 01:59:30;;;;;;;55.60;26.67;;;;;;;;;;5050425;28;20012;-68
2020/12/09 02:01:56;;;;;;;60.42;29.02;;;;;;;;;;5050949;28;20528;-67
2020/12/09 02:04:21;;;;;;;56.78;27.92;;;;;;;;;;5052481;28;20500;-67
2020/12/09 02:06:49;;;;;;;68.57;29.83;;;;;;;;;;5052804;28;20064;-66
2020/12/09 02:09:14;;;;;;;61.03;29.08;;;;;;;;;;5052472;28;20041;-67
2020/12/09 02:11:39;;;;;;;63.73;30.00;;;;;;;;;;5051363;28;20490;-66
2020/12/09 02:14:04;;;;;;;72.57;31.90;;;;;;;;;;5051297;28;20267;-66
2020/12/09 02:16:29;;;;;;;63.10;30.23;;;;;;;;;;5051143;28;20272;-67
2020/12/09 02:18:54;;;;;;;60.90;28.13;;;;;;;;;;5047699;28;20033;-66
2020/12/09 02:21:22;;;;;;;64.30;30.20;;;;;;;;;;5052039;28;20255;-66
2020/12/09 02:23:48;;;;;;;72.18;34.22;;;;;;;;;;5045692;28;20021;-67
2020/12/09 02:26:13;;;;;;;77.80;34.33;;;;;;;;;;5050831;28;20400;-66
2020/12/09 02:28:38;;;;;;;83.00;39.70;;;;;;;;;;5042961;28;20274;-66
2020/12/09 02:31:03;;;;;;;77.20;33.35;;;;;;;;;;5051699;28;20385;-66
2020/12/09 02:33:28;;;;;;;81.63;35.63;;;;;;;;;;5051640;28;20021;-66
2020/12/09 02:35:53;;;;;;;72.15;34.30;;;;;;;;;;5048801;28;20124;-66
2020/12/09 02:38:19;;;;;;;74.25;32.55;;;;;;;;;;5047684;28;20017;-66
2020/12/09 02:40:44;;;;;;;74.25;30.92;;;;;;;;;;5051465;28;20075;-67
2020/12/09 02:43:09;;;;;;;76.65;32.17;;;;;;;;;;5049147;28;20021;-67
2020/12/09 02:45:34;;;;;;;75.35;32.08;;;;;;;;;;5051224;28;20021;-68
2020/12/09 02:48:00;;;;;;;80.78;35.17;;;;;;;;;;5051363;28;20059;-67
2020/12/09 02:50:25;;;;;;;71.13;37.95;;;;;;;;;;5050758;28;20035;-67
2020/12/09 02:52:50;;;;;;;77.63;36.40;;;;;;;;;;5050491;28;21708;-67
2020/12/09 02:55:15;;;;;;;78.38;32.83;;;;;;;;;;5049796;28;20280;-67
2020/12/09 02:57:40;;;;;;;71.85;33.58;;;;;;;;;;5051279;28;20504;-67
2020/12/09 03:00:06;;;;;;;78.60;38.13;;;;;;;;;;5050726;28;20386;-67
2020/12/09 03:02:31;;;;;;;76.13;32.38;;;;;;;;;;5051175;28;20101;-66
2020/12/09 03:04:56;;;;;;;86.93;32.72;;;;;;;;;;5049914;28;20385;-66
2020/12/09 03:07:21;;;;;;;69.65;30.70;;;;;;;;;;5050873;28;20017;-67
2020/12/09 03:09:47;;;;;;;75.75;36.47;;;;;;;;;;5048691;28;20032;-66
2020/12/09 03:12:12;;;;;;;71.57;36.13;;;;;;;;;;5045192;28;20017;-66
2020/12/09 03:14:37;;;;;;;79.28;38.03;;;;;;;;;;5051076;28;20750;-67
2020/12/09 03:17:02;;;;;;;84.73;35.77;;;;;;;;;;5049938;28;20025;-67
2020/12/09 03:19:27;;;;;;;73.40;34.37;;;;;;;;;;5049142;28;20334;-66
2020/12/09 03:21:52;;;;;;;84.47;35.90;;;;;;;;;;5049514;28;20267;-67
2020/12/09 03:24:18;;;;;;;78.03;35.90;;;;;;;;;;5048966;28;20045;-67
2020/12/09 03:26:43;;;;;;;76.67;31.60;;;;;;;;;;5049045;28;20748;-67
2020/12/09 03:29:08;;;;;;;75.47;32.20;;;;;;;;;;5049519;28;20271;-67
2020/12/09 03:31:34;;;;;;;71.88;32.53;;;;;;;;;;5050691;28;20772;-67
2020/12/09 03:33:59;;;;;;;74.00;34.33;;;;;;;;;;5049960;28;20094;-67
2020/12/09 03:36:24;;;;;;;76.82;35.20;;;;;;;;;;5051856;28;20028;-66
2020/12/09 03:38:49;;;;;;;76.03;35.13;;;;;;;;;;5050535;28;20116;-66
2020/12/09 03:41:14;;;;;;;68.18;31.15;;;;;;;;;;5048722;28;20041;-66
2020/12/09 03:43:40;;;;;;;68.68;32.28;;;;;;;;;;5050278;28;20718;-66
2020/12/09 03:46:05;;;;;;;69.32;31.00;;;;;;;;;;5046251;28;20455;-66
2020/12/09 03:48:30;;;;;;;74.82;31.50;;;;;;;;;;5046051;28;20535;-66
2020/12/09 03:50:55;;;;;;;72.28;32.85;;;;;;;;;;5043015;28;20029;-66
2020/12/09 03:53:21;;;;;;;66.05;30.75;;;;;;;;;;5047026;28;20040;-66
2020/12/09 03:55:47;;;;;;;64.80;30.98;;;;;;;;;;5044368;28;20022;-66
2020/12/09 03:58:12;;;;;;;65.93;31.67;;;;;;;;;;5046703;28;20028;-66
2020/12/09 04:00:37;;;;;;;69.50;30.77;;;;;;;;;;5045032;28;20032;-66
2020/12/09 04:03:02;;;;;;;74.57;33.63;;;;;;;;;;5046262;28;20056;-66
2020/12/09 04:05:27;;;;;;;70.88;31.50;;;;;;;;;;5046046;28;20029;-66
2020/12/09 04:07:53;;;;;;;76.95;33.42;;;;;;;;;;5046372;28;20033;-66
2020/12/09 04:10:18;;;;;;;74.77;33.80;;;;;;;;;;5047897;28;20017;-66
2020/12/09 04:12:44;;;;;;;69.25;31.67;;;;;;;;;;5046438;28;20354;-66
2020/12/09 04:15:09;;;;;;;76.40;34.15;;;;;;;;;;5046138;28;20013;-66
2020/12/09 04:17:34;;;;;;;76.35;35.10;;;;;;;;;;5047111;28;20127;-66
2020/12/09 04:20:00;;;;;;;76.18;35.72;;;;;;;;;;5045796;28;20016;-65
2020/12/09 04:22:25;;;;;;;74.20;34.22;;;;;;;;;;5048430;28;20424;-65
2020/12/09 04:24:50;;;;;;;87.20;36.85;;;;;;;;;;5045995;28;20455;-66
2020/12/09 04:27:15;;;;;;;81.55;35.78;;;;;;;;;;5044607;28;20041;-65
2020/12/09 04:29:41;;;;;;;72.47;33.90;;;;;;;;;;5044903;28;20020;-66
2020/12/09 04:32:06;;;;;;;74.72;35.22;;;;;;;;;;5045674;28;20130;-66
2020/12/09 04:34:32;;;;;;;74.93;33.95;;;;;;;;;;5045140;28;20486;-66
2020/12/09 04:36:57;;;;;;;84.40;37.28;;;;;;;;;;5046568;28;20314;-66
2020/12/09 04:39:22;;;;;;;86.53;39.13;;;;;;;;;;5044235;28;20044;-66
2020/12/09 04:41:48;;;;;;;77.90;34.55;;;;;;;;;;5046483;28;20405;-66
2020/12/09 04:44:13;;;;;;;84.10;35.35;;;;;;;;;;5048036;28;20487;-66
2020/12/09 04:46:45;;;;;;;83.25;36.75;;;;;;;;;;5046805;28;20029;-66
2020/12/09 04:49:20;;;;;;;74.82;33.45;;;;;;;;;;5028912;28;20021;-66
2020/12/09 04:51:58;;;;;;;84.55;36.58;;;;;;;;;;5047409;28;20028;-66
2020/12/09 04:54:33;;;;;;;84.82;36.22;;;;;;;;;;5049166;28;20116;-66
2020/12/09 04:57:07;;;;;;;71.00;34.40;;;;;;;;;;5049308;28;20489;-66
2020/12/09 04:59:37;;;;;;;84.32;38.47;;;;;;;;;;5042167;28;20120;-66
2020/12/09 05:02:04;;;;;;;86.50;38.40;;;;;;;;;;5048113;28;20032;-66
2020/12/09 05:04:31;;;;;;;80.03;36.08;;;;;;;;;;5049320;28;20016;-66
2020/12/09 05:06:59;;;;;;;81.68;35.67;;;;;;;;;;5049247;28;20103;-66
2020/12/09 05:09:26;;;;;;;89.72;35.40;;;;;;;;;;5049050;28;20024;-66
2020/12/09 05:11:53;;;;;;;74.80;35.15;;;;;;;;;;5048294;28;20021;-66
2020/12/09 05:14:19;;;;;;;93.22;35.90;;;;;;;;;;5049266;28;20105;-66
2020/12/09 05:16:56;;;;;;;84.80;35.20;;;;;;;;;;5048252;28;20103;-66
2020/12/09 05:19:21;;;;;;;104.35;44.05;;;;;;;;;;5048505;28;20040;-66
2020/12/09 05:21:47;;;;;;;84.87;37.00;;;;;;;;;;5048462;28;20671;-67
2020/12/09 05:24:12;;;;;;;97.75;40.30;;;;;;;;;;5049109;28;20274;-67
2020/12/09 05:26:37;;;;;;;100.40;41.65;;;;;;;;;;5048915;28;20071;-66
2020/12/09 05:29:04;;;;;;;90.88;39.03;;;;;;;;;;5052273;28;20032;-66
2020/12/09 05:31:30;;;;;;;100.95;39.38;;;;;;;;;;5047356;28;20029;-66
2020/12/09 05:33:55;;;;;;;94.95;39.80;;;;;;;;;;5052599;28;20408;-66
2020/12/09 05:36:21;;;;;;;97.53;41.65;;;;;;;;;;5042342;28;20057;-67
2020/12/09 05:39:01;;;;;;;98.97;40.88;;;;;;;;;;5052570;28;20028;-66
2020/12/09 05:41:30;;;;;;;102.40;40.40;;;;;;;;;;5052066;28;20032;-66
2020/12/09 05:43:58;;;;;;;104.25;44.35;;;;;;;;;;5052323;28;20028;-67
2020/12/09 05:46:24;;;;;;;105.55;43.13;;;;;;;;;;5052175;28;20447;-67
2020/12/09 05:48:49;;;;;;;112.95;45.55;;;;;;;;;;5051196;28;20107;-66
2020/12/09 05:51:14;;;;;;;110.53;43.00;;;;;;;;;;5052319;28;20029;-66
2020/12/09 05:53:39;;;;;;;113.38;44.65;;;;;;;;;;5052429;28;20025;-66
2020/12/09 05:56:11;;;;;;;105.67;41.87;;;;;;;;;;5051859;28;20029;-66
2020/12/09 05:58:40;;;;;;;106.68;42.75;;;;;;;;;;5051713;28;20314;-66
2020/12/09 06:01:24;;;;;;;105.88;41.75;;;;;;;;;;5051262;28;20017;-67
2020/12/09 06:03:50;;;;;;;101.97;41.67;;;;;;;;;;5046546;28;20025;-67
2020/12/09 06:06:17;;;;;;;111.05;42.33;;;;;;;;;;5051735;28;20017;-67
2020/12/09 06:08:52;;;;;;;105.18;44.20;;;;;;;;;;5033390;28;20516;-67
2020/12/09 06:11:19;;;;;;;110.53;47.95;;;;;;;;;;5049825;28;20076;-66
2020/12/09 06:13:44;;;;;;;108.00;41.63;;;;;;;;;;5051674;28;20056;-67
2020/12/09 06:16:10;;;;;;;109.78;47.30;;;;;;;;;;5049750;28;20056;-66
2020/12/09 06:18:37;;;;;;;100.95;44.05;;;;;;;;;;5051305;28;20060;-67
2020/12/09 06:21:03;;;;;;;100.93;42.05;;;;;;;;;;5049760;28;20017;-67
2020/12/09 06:23:29;;;;;;;99.70;39.60;;;;;;;;;;5050757;28;20042;-68
2020/12/09 06:25:55;;;;;;;88.20;37.22;;;;;;;;;;5051949;28;20025;-66
2020/12/09 06:28:21;;;;;;;90.25;40.35;;;;;;;;;;5050903;28;20473;-66
2020/12/09 06:30:47;;;;;;;86.28;36.05;;;;;;;;;;5043872;28;20198;-65
2020/12/09 06:33:12;;;;;;;91.55;39.50;;;;;;;;;;5049076;28;20033;-66
2020/12/09 06:35:38;;;;;;;92.20;36.35;;;;;;;;;;5047989;28;20025;-66
2020/12/09 06:38:09;;;;;;;91.57;41.78;;;;;;;;;;5048117;28;20151;-65
2020/12/09 06:40:38;;;;;;;77.53;34.45;;;;;;;;;;5044814;28;20492;-66
2020/12/09 06:43:13;;;;;;;87.80;35.63;;;;;;;;;;5048570;28;20044;-66
2020/12/09 06:45:43;;;;;;;79.95;36.42;;;;;;;;;;5044244;28;20025;-66
2020/12/09 06:48:09;;;;;;;89.85;36.50;;;;;;;;;;5047226;28;20029;-64
2020/12/09 06:50:34;;;;;;;83.80;37.58;;;;;;;;;;5046154;28;20025;-65
2020/12/09 06:53:10;;;;;;;85.70;37.00;;;;;;;;;;5046416;28;20027;-65
2020/12/09 06:55:35;;;;;;;88.18;36.75;;;;;;;;;;5045746;28;20032;-66
2020/12/09 06:58:20;;;;;;;81.88;35.90;;;;;;;;;;5047677;28;20073;-66
2020/12/09 07:00:56;;;;;;;80.28;35.75;;;;;;;;;;5054178;28;20508;-66
2020/12/09 07:03:25;;;;;;;96.30;39.67;;;;;;;;;;5049373;28;20029;-66
2020/12/09 07:05:51;;;;;;;88.95;38.50;;;;;;;;;;5048417;28;20050;-66
2020/12/09 07:08:16;;;;;;;94.45;38.47;;;;;;;;;;5051675;28;20024;-66
2020/12/09 07:10:41;;;;;;;90.40;38.85;;;;;;;;;;5049375;28;20029;-66
2020/12/09 07:13:07;;;;;;;86.60;35.37;;;;;;;;;;5049887;28;20091;-65
2020/12/09 07:15:34;;;;;;;81.03;33.95;;;;;;;;;;5049756;28;20275;-66
2020/12/09 07:17:59;;;;;;;78.88;36.00;;;;;;;;;;5049140;28;20017;-66
2020/12/09 07:20:24;;;;;;;83.63;35.90;;;;;;;;;;5045156;28;20052;-66
2020/12/09 07:22:49;;;;;;;97.85;40.05;;;;;;;;;;5049688;28;20029;-66
2020/12/09 07:25:14;;;;;;;88.47;36.05;;;;;;;;;;5046923;28;20457;-66
2020/12/09 07:27:40;;;;;;;81.20;36.22;;;;;;;;;;5050389;28;20501;-66
2020/12/09 07:30:07;;;;;;;77.22;35.50;;;;;;;;;;5050643;28;20052;-68
2020/12/09 07:32:33;;;;;;;81.35;34.78;;;;;;;;;;5050680;28;20441;-66
2020/12/09 07:34:59;;;;;;;70.25;33.00;;;;;;;;;;5049920;28;20052;-66
2020/12/09 07:37:26;;;;;;;84.28;37.72;;;;;;;;;;5050380;28;20024;-66
2020/12/09 07:39:53;;;;;;;80.20;34.83;;;;;;;;;;5049509;28;20021;-66
2020/12/09 07:42:22;;;;;;;86.88;37.65;;;;;;;;;;5073740;23;20041;-66
2020/12/09 07:44:48;;;;;;;85.55;37.50;;;;;;;;;;5050259;28;20028;-66
2020/12/09 07:47:19;;;;;;;81.85;36.08;;;;;;;;;;5046983;28;20466;-67
2020/12/09 07:49:49;;;;;;;83.00;38.65;;;;;;;;;;5047597;28;20056;-67
2020/12/09 07:52:17;;;;;;;82.35;36.80;;;;;;;;;;5049474;28;20021;-67
2020/12/09 07:54:43;;;;;;;91.53;37.30;;;;;;;;;;5049771;28;20029;-67
2020/12/09 07:57:08;;;;;;;87.38;36.95;;;;;;;;;;5048706;28;20680;-67
2020/12/09 07:59:33;;;;;;;91.32;38.65;;;;;;;;;;5050883;28;20021;-66
2020/12/09 08:02:15;;;;;;;87.63;38.33;;;;;;;;;;5049044;28;20025;-68
2020/12/09 08:04:41;;;;;;;96.50;38.97;;;;;;;;;;5039929;28;20028;-65
2020/12/09 08:07:16;;;;;;;100.28;40.55;;;;;;;;;;5049074;28;20400;-68
2020/12/09 08:09:41;;;;;;;109.65;43.85;;;;;;;;;;5048836;28;20489;-66
2020/12/09 08:12:06;;;;;;;91.57;39.85;;;;;;;;;;5051317;28;20023;-68
2020/12/09 08:14:32;;;;;;;89.32;39.70;;;;;;;;;;5046981;28;20047;-65
2020/12/09 08:16:57;;;;;;;95.28;40.38;;;;;;;;;;5046906;28;20032;-66
2020/12/09 08:19:22;;;;;;;88.72;39.05;;;;;;;;;;5046149;28;20021;-65
2020/12/09 08:21:47;;;;;;;100.25;41.45;;;;;;;;;;5048608;28;20538;-66
2020/12/09 08:24:13;;;;;;;89.77;38.33;;;;;;;;;;5050086;28;20025;-66
2020/12/09 08:26:39;;;;;;;97.70;37.47;;;;;;;;;;5049035;28;20639;-66
2020/12/09 08:29:05;;;;;;;81.32;32.85;;;;;;;;;;5048467;28;20017;-67
2020/12/09 08:31:30;;;;;;;84.80;33.97;;;;;;;;;;5048840;28;20496;-66
2020/12/09 08:33:56;;;;;;;82.88;37.72;;;;;;;;;;5049682;28;20526;-68
2020/12/09 08:36:22;;;;;;;78.05;35.85;;;;;;;;;;5049310;28;20060;-66
2020/12/09 08:39:08;;;;;;;73.80;32.53;;;;;;;;;;5048787;28;20155;-70
2020/12/09 08:41:34;;;;;;;66.93;28.75;;;;;;;;;;5048217;28;20057;-68
2020/12/09 08:44:00;;;;;;;84.15;33.88;;;;;;;;;;5049280;28;20094;-67
2020/12/09 08:46:27;;;;;;;76.03;34.65;;;;;;;;;;5049082;28;20357;-66
2020/12/09 08:48:52;;;;;;;84.55;36.95;;;;;;;;;;5057416;28;20477;-67
2020/12/09 08:51:22;;;;;;;81.90;36.83;;;;;;;;;;5052649;28;20017;-66
2020/12/09 08:53:47;;;;;;;79.50;36.47;;;;;;;;;;5049055;28;20036;-68
2020/12/09 08:56:12;;;;;;;75.88;35.25;;;;;;;;;;5048560;28;20416;-67
2020/12/09 08:58:37;;;;;;;68.40;33.37;;;;;;;;;;5049052;28;20053;-69
2020/12/09 09:01:02;;;;;;;82.00;36.43;;;;;;;;;;5048584;28;20667;-67
2020/12/09 09:03:28;;;;;;;70.97;34.90;;;;;;;;;;5035893;28;20465;-69
2020/12/09 09:05:54;;;;;;;75.70;35.90;;;;;;;;;;5052263;28;20028;-66
2020/12/09 09:08:20;;;;;;;77.60;39.55;;;;;;;;;;5052963;28;20635;-66
2020/12/09 09:10:45;;;;;;;84.00;37.78;;;;;;;;;;5043164;28;20024;-66
2020/12/09 09:13:10;;;;;;;76.65;33.40;;;;;;;;;;5053429;28;20027;-67
2020/12/09 09:15:36;;;;;;;62.60;30.65;;;;;;;;;;5053411;28;20024;-67
2020/12/09 09:18:02;;;;;;;67.75;33.42;;;;;;;;;;5053473;28;20025;-67
2020/12/09 09:20:27;;;;;;;71.53;34.15;;;;;;;;;;5052534;28;20021;-67
2020/12/09 09:22:52;;;;;;;67.55;33.45;;;;;;;;;;5053880;28;20463;-67
2020/12/09 09:25:17;;;;;;;70.57;32.25;;;;;;;;;;5050679;28;20483;-67
2020/12/09 09:27:43;;;;;;;67.65;31.77;;;;;;;;;;5053143;28;20417;-67
2020/12/09 09:30:08;;;;;;;68.60;31.43;;;;;;;;;;5051987;28;20465;-67
2020/12/09 09:32:33;;;;;;;69.18;33.55;;;;;;;;;;5053451;28;20256;-67
2020/12/09 09:34:58;;;;;;;66.00;32.72;;;;;;;;;;5053044;28;20055;-67
2020/12/09 09:37:24;;;;;;;65.67;31.13;;;;;;;;;;5053174;28;20029;-67
2020/12/09 09:39:50;;;;;;;71.68;33.72;;;;;;;;;;5052368;28;20264;-68
2020/12/09 09:42:17;;;;;;;75.95;34.22;;;;;;;;;;5048387;28;20404;-67
2020/12/09 09:44:42;;;;;;;64.85;32.97;;;;;;;;;;5053046;28;20020;-67
2020/12/09 09:47:07;;;;;;;65.50;32.13;;;;;;;;;;5051315;28;20037;-67
2020/12/09 09:49:32;;;;;;;69.07;31.60;;;;;;;;;;5033814;28;20025;-68
2020/12/09 09:51:58;;;;;;;75.90;34.72;;;;;;;;;;5052998;28;20371;-67
2020/12/09 09:54:23;;;;;;;81.43;35.22;;;;;;;;;;5052087;28;20317;-67
2020/12/09 09:56:49;;;;;;;74.25;34.90;;;;;;;;;;5050941;28;20076;-67
2020/12/09 09:59:15;;;;;;;75.45;36.08;;;;;;;;;;5051198;28;20025;-66
2020/12/09 10:01:40;;;;;;;88.20;40.85;;;;;;;;;;5052271;28;20020;-66
2020/12/09 10:04:08;;;;;;;88.63;39.90;;;;;;;;;;5051841;28;20508;-66
2020/12/09 10:06:34;;;;;;;80.57;40.38;;;;;;;;;;5052416;28;20275;-66
2020/12/09 10:08:59;;;;;;;85.65;39.50;;;;;;;;;;5045300;28;20024;-66
2020/12/09 10:11:25;;;;;;;80.32;38.92;;;;;;;;;;5045749;28;20459;-67
2020/12/09 10:13:51;;;;;;;76.75;38.33;;;;;;;;;;5050854;28;20105;-66
2020/12/09 10:16:23;;;;;;;86.50;40.55;;;;;;;;;;5045342;28;20018;-65
2020/12/09 10:18:48;;;;;;;75.75;37.97;;;;;;;;;;5051034;28;20024;-67
2020/12/09 10:21:13;;;;;;;82.88;37.15;;;;;;;;;;5051804;28;20029;-66
2020/12/09 10:23:39;;;;;;;72.80;38.57;;;;;;;;;;5052113;28;20029;-66
2020/12/09 10:26:04;;;;;;;81.28;38.60;;;;;;;;;;5051894;28;20329;-66
2020/12/09 10:28:29;;;;;;;74.73;37.23;;;;;;;;;;5051897;28;20017;-66
2020/12/09 10:30:55;;;;;;;87.30;39.90;;;;;;;;;;5043025;28;20326;-66
2020/12/09 10:33:20;;;;;;;73.45;34.65;;;;;;;;;;5051307;28;20270;-66
2020/12/09 10:35:45;;;;;;;76.70;32.90;;;;;;;;;;5051627;28;20025;-66
2020/12/09 10:38:10;;;;;;;79.32;36.80;;;;;;;;;;5051418;28;20454;-66
2020/12/09 10:40:35;;;;;;;73.88;34.63;;;;;;;;;;5052148;28;20629;-66
2020/12/09 10:43:01;;;;;;;73.78;34.92;;;;;;;;;;5051366;28;20057;-66
2020/12/09 10:45:26;;;;;;;71.17;36.50;;;;;;;;;;5048429;28;20107;-66
2020/12/09 10:47:51;;;;;;;70.88;36.78;;;;;;;;;;5042645;28;20260;-66
2020/12/09 10:50:16;;;;;;;70.73;34.27;;;;;;;;;;5051086;28;20047;-66
2020/12/09 10:52:42;;;;;;;76.47;38.00;;;;;;;;;;5050976;28;20259;-67
2020/12/09 10:55:07;;;;;;;71.32;36.20;;;;;;;;;;5050698;28;20611;-67
2020/12/09 10:57:33;;;;;;;73.97;35.30;;;;;;;;;;5051021;28;20486;-67
2020/12/09 10:59:58;;;;;;;68.78;30.10;;;;;;;;;;5050791;28;20021;-67
2020/12/09 11:02:23;;;;;;;72.70;29.98;;;;;;;;;;5041446;28;20023;-66
2020/12/09 11:04:49;;;;;;;70.50;30.77;;;;;;;;;;5050369;28;20698;-66
2020/12/09 11:07:14;;;;;;;79.13;32.42;;;;;;;;;;5051147;28;20506;-66
2020/12/09 11:09:40;;;;;;;75.75;35.80;;;;;;;;;;5050768;28;20031;-67
2020/12/09 11:12:05;;;;;;;75.72;31.55;;;;;;;;;;5051346;28;20033;-66
2020/12/09 11:14:33;;;;;;;56.92;22.88;;;;;;;;;;5050081;28;20017;-67
2020/12/09 11:16:59;;;;;;;77.18;29.33;;;;;;;;;;5044823;28;20036;-65
2020/12/09 11:19:24;;;;;;;70.25;30.95;;;;;;;;;;5049094;28;20090;-66
2020/12/09 11:21:52;;;;;;;71.90;32.57;;;;;;;;;;5050283;28;20029;-66
2020/12/09 11:24:18;;;;;;;85.07;41.13;;;;;;;;;;5049293;28;20713;-65
2020/12/09 11:26:43;;;;;;;76.00;36.97;;;;;;;;;;5050317;28;20021;-67
2020/12/09 11:29:08;;;;;;;91.72;39.53;;;;;;;;;;5046163;28;20026;-67
2020/12/09 11:31:37;;;;;;;84.10;40.30;;;;;;;;;;5041577;28;20087;-64
2020/12/09 11:34:03;;;;;;;84.13;39.72;;;;;;;;;;5043338;28;20255;-68
2020/12/09 11:36:28;;;;;;;75.82;33.08;;;;;;;;;;5050544;28;20025;-66
2020/12/09 11:38:54;;;;;;;82.75;37.72;;;;;;;;;;5050674;28;20025;-67
2020/12/09 11:41:22;;;;;;;79.30;34.97;;;;;;;;;;5052638;28;20469;-67
2020/12/09 11:43:47;;;;;;;74.18;29.52;;;;;;;;;;5050597;28;20029;-67
2020/12/09 11:46:14;;;;;;;80.93;37.63;;;;;;;;;;5047015;28;20560;-67
2020/12/09 11:48:39;;;;;;;74.38;32.05;;;;;;;;;;5050491;28;20029;-68
2020/12/09 11:51:04;;;;;;;75.67;34.67;;;;;;;;;;5050095;28;20021;-68
2020/12/09 11:53:30;;;;;;;70.73;33.03;;;;;;;;;;5050014;28;20267;-68
2020/12/09 11:55:55;;;;;;;80.70;35.50;;;;;;;;;;5050568;28;20275;-67
2020/12/09 11:58:20;;;;;;;57.57;22.80;;;;;;;;;;5032365;28;20496;-67
2020/12/09 12:00:45;;;;;;;66.78;30.67;;;;;;;;;;5046745;28;20326;-67
2020/12/09 12:03:10;;;;;;;81.30;31.02;;;;;;;;;;5049060;28;20726;-68
2020/12/09 12:05:37;;;;;;;68.87;31.07;;;;;;;;;;5048459;28;20047;-67
2020/12/09 12:08:04;;;;;;;81.63;35.33;;;;;;;;;;5039839;28;20267;-67
2020/12/09 12:10:30;;;;;;;72.03;36.75;;;;;;;;;;5049455;28;20544;-68
2020/12/09 12:12:55;;;;;;;85.45;38.63;;;;;;;;;;5044074;28;20103;-68
2020/12/09 12:15:20;;;;;;;83.87;34.77;;;;;;;;;;5050034;28;20025;-68
2020/12/09 12:17:45;;;;;;;74.43;34.33;;;;;;;;;;5050143;28;20264;-68
2020/12/09 12:20:10;;;;;;;78.85;37.97;;;;;;;;;;5047312;28;20259;-67
2020/12/09 12:22:36;;;;;;;79.70;37.25;;;;;;;;;;5045572;28;20029;-67
2020/12/09 12:25:01;;;;;;;74.18;34.55;;;;;;;;;;5050120;28;20063;-67
2020/12/09 12:27:26;;;;;;;73.47;36.03;;;;;;;;;;5050034;28;20043;-68
2020/12/09 12:29:51;;;;;;;77.35;36.30;;;;;;;;;;5043886;28;20479;-67
2020/12/09 12:32:17;;;;;;;77.50;36.67;;;;;;;;;;5050357;28;20028;-68
2020/12/09 12:34:42;;;;;;;84.68;36.30;;;;;;;;;;5049872;28;20550;-68
2020/12/09 12:37:07;;;;;;;78.35;34.03;;;;;;;;;;5047183;28;20049;-68
2020/12/09 12:39:32;;;;;;;50.25;22.20;;;;;;;;;;5048825;28;20057;-68
2020/12/09 12:41:58;;;;;;;58.03;27.17;;;;;;;;;;5049976;28;20025;-68
2020/12/09 12:44:23;;;;;;;31.30;11.50;;;;;;;;;;5049591;28;20470;-68
2020/12/09 12:46:48;;;;;;;70.50;32.23;;;;;;;;;;5049649;28;20272;-68
2020/12/09 12:49:14;;;;;;;50.25;20.30;;;;;;;;;;5048796;28;20263;-68
2020/12/09 12:51:39;;;;;;;57.35;25.45;;;;;;;;;;5047570;28;20377;-68
2020/12/09 12:54:06;;;;;;;50.27;19.97;;;;;;;;;;5047981;28;20052;-67
2020/12/09 12:56:31;;;;;;;38.10;16.00;;;;;;;;;;5037082;28;20325;-68
2020/12/09 12:58:56;;;;;;;60.20;26.25;;;;;;;;;;5055272;28;20028;-68
2020/12/09 13:01:21;;;;;;;59.38;27.38;;;;;;;;;;5045592;28;20100;-67
2020/12/09 13:03:46;;;;;;;49.97;23.92;;;;;;;;;;5049683;28;20477;-67
2020/12/09 13:06:13;;;;;;;62.15;26.67;;;;;;;;;;5049785;28;20024;-67
2020/12/09 13:08:38;;;;;;;58.78;28.30;;;;;;;;;;5048788;28;20040;-67
2020/12/09 13:11:05;;;;;;;60.78;28.17;;;;;;;;;;5049112;28;20013;-67
2020/12/09 13:13:31;;;;;;;50.20;22.45;;;;;;;;;;5046580;28;20056;-67
2020/12/09 13:15:56;;;;;;;56.87;27.37;;;;;;;;;;5048571;28;20063;-67
2020/12/09 13:18:21;;;;;;;74.72;35.80;;;;;;;;;;5048260;28;20732;-67
2020/12/09 13:20:46;;;;;;;58.53;24.93;;;;;;;;;;5048633;28;20032;-67
2020/12/09 13:23:11;;;;;;;41.80;15.70;;;;;;;;;;5048389;28;20313;-67
2020/12/09 13:25:37;;;;;;;56.28;22.73;;;;;;;;;;5047386;28;20527;-66
2020/12/09 13:28:02;;;;;;;55.00;20.77;;;;;;;;;;5048985;28;20124;-66
2020/12/09 13:30:27;;;;;;;57.50;23.90;;;;;;;;;;5048326;28;20025;-66
2020/12/09 13:32:53;;;;;;;57.47;26.35;;;;;;;;;;5048917;28;20536;-67
2020/12/09 13:35:18;;;;;;;52.03;17.90;;;;;;;;;;5031183;28;20025;-66
2020/12/09 13:37:43;;;;;;;53.33;22.45;;;;;;;;;;5047023;28;20345;-66
2020/12/09 13:40:08;;;;;;;63.55;25.52;;;;;;;;;;5047883;28;20024;-66
2020/12/09 13:42:33;;;;;;;66.68;27.45;;;;;;;;;;5066392;23;20509;-72
2020/12/09 13:44:59;;;;;;;61.15;28.02;;;;;;;;;;5015252;28;20477;-73
2020/12/09 13:47:24;;;;;;;64.25;24.63;;;;;;;;;;5008787;28;20052;-73
2020/12/09 13:49:49;;;;;;;53.63;23.33;;;;;;;;;;4993461;28;20068;-74
2020/12/09 13:52:14;;;;;;;52.97;24.90;;;;;;;;;;5011626;28;20257;-75
2020/12/09 13:54:40;;;;;;;34.33;13.30;;;;;;;;;;5012799;28;20367;-75
2020/12/09 13:57:05;;;;;;;55.45;23.52;;;;;;;;;;5012499;28;20014;-73
2020/12/09 13:59:30;;;;;;;25.48;9.07;;;;;;;;;;5012198;28;20018;-75
2020/12/09 14:01:55;;;;;;;38.30;16.08;;;;;;;;;;5010927;28;20079;-73
2020/12/09 14:04:22;;;;;;;45.97;18.05;;;;;;;;;;5012377;28;20018;-75
2020/12/09 14:06:47;;;;;;;40.33;14.70;;;;;;;;;;5013311;28;20034;-75
2020/12/09 14:09:12;;;;;;;49.33;21.23;;;;;;;;;;5012020;28;20077;-74